sensor_id;sensor_type;location;lat;lon;timestamp;pressure;altitude;pressure_sealevel;temperature
68911;BMP180;55953;51.650;-0.522;2023-05-03T00:02:26;101982.60;;;8.20
68911;BMP180;55953;51.650;-0.522;2023-05-03T00:04:54;101974.20;;;8.20
68911;BMP180;55953;51.650;-0.522;2023-05-03T00:07:22;101975.20;;;8.14
68911;BMP180;55953;51.650;-0.522;2023-05-03T00:09:50;101975.60;;;8.10
68911;BMP180;55953;51.650;-0.522;2023-05-03T00:12:18;101973.40;;;8.00
68911;BMP180;55953;51.650;-0.522;2023-05-03T00:14:46;101973.40;;;8.00
68911;BMP180;55953;51.650;-0.522;2023-05-03T00:17:14;101968.20;;;7.90
68911;BMP180;55953;51.650;-0.522;2023-05-03T00:19:42;101964.80;;;7.90
68911;BMP180;55953;51.650;-0.522;2023-05-03T00:22:10;101965.80;;;7.80
68911;BMP180;55953;51.650;-0.522;2023-05-03T00:24:39;101968.60;;;7.80
68911;BMP180;55953;51.650;-0.522;2023-05-03T00:27:07;101965.00;;;7.70
68911;BMP180;55953;51.650;-0.522;2023-05-03T00:29:35;101964.40;;;7.70
68911;BMP180;55953;51.650;-0.522;2023-05-03T00:32:03;101968.00;;;7.66
68911;BMP180;55953;51.650;-0.522;2023-05-03T00:34:31;101970.00;;;7.60
68911;BMP180;55953;51.650;-0.522;2023-05-03T00:36:59;101967.00;;;7.70
68911;BMP180;55953;51.650;-0.522;2023-05-03T00:39:30;101967.00;;;7.70
68911;BMP180;55953;51.650;-0.522;2023-05-03T00:41:59;101962.40;;;7.60
68911;BMP180;55953;51.650;-0.522;2023-05-03T00:44:29;101958.00;;;7.60
68911;BMP180;55953;51.650;-0.522;2023-05-03T00:46:57;101963.40;;;7.50
68911;BMP180;55953;51.650;-0.522;2023-05-03T00:49:25;101960.00;;;7.50
68911;BMP180;55953;51.650;-0.522;2023-05-03T00:51:53;101958.00;;;7.60
68911;BMP180;55953;51.650;-0.522;2023-05-03T00:54:21;101957.80;;;7.58
68911;BMP180;55953;51.650;-0.522;2023-05-03T00:56:50;101953.60;;;7.50
68911;BMP180;55953;51.650;-0.522;2023-05-03T00:59:19;101954.80;;;7.50
68911;BMP180;55953;51.650;-0.522;2023-05-03T01:01:51;101961.00;;;7.42
68911;BMP180;55953;51.650;-0.522;2023-05-03T01:04:21;101955.00;;;7.44
68911;BMP180;55953;51.650;-0.522;2023-05-03T01:07:03;101956.80;;;7.42
68911;BMP180;55953;51.650;-0.522;2023-05-03T01:10:00;101960.00;;;7.40
68911;BMP180;55953;51.650;-0.522;2023-05-03T01:13:03;101957.60;;;7.40
68911;BMP180;55953;51.650;-0.522;2023-05-03T01:18:41;101949.00;;;7.40
68911;BMP180;55953;51.650;-0.522;2023-05-03T01:21:15;101950.60;;;7.40
68911;BMP180;55953;51.650;-0.522;2023-05-03T01:23:56;101941.20;;;7.36
68911;BMP180;55953;51.650;-0.522;2023-05-03T01:26:27;101946.20;;;7.30
68911;BMP180;55953;51.650;-0.522;2023-05-03T01:28:55;101941.20;;;7.30
68911;BMP180;55953;51.650;-0.522;2023-05-03T01:32:02;101938.40;;;7.20
68911;BMP180;55953;51.650;-0.522;2023-05-03T01:37:16;101929.80;;;7.20
68911;BMP180;55953;51.650;-0.522;2023-05-03T01:39:57;101932.60;;;7.20
68911;BMP180;55953;51.650;-0.522;2023-05-03T01:42:29;101937.80;;;7.20
68911;BMP180;55953;51.650;-0.522;2023-05-03T01:45:00;101939.80;;;7.20
68911;BMP180;55953;51.650;-0.522;2023-05-03T01:47:30;101940.80;;;7.20
68911;BMP180;55953;51.650;-0.522;2023-05-03T01:49:59;101942.40;;;7.02
68911;BMP180;55953;51.650;-0.522;2023-05-03T01:52:27;101942.00;;;7.00
68911;BMP180;55953;51.650;-0.522;2023-05-03T01:54:55;101947.20;;;7.00
68911;BMP180;55953;51.650;-0.522;2023-05-03T01:57:23;101946.00;;;6.92
68911;BMP180;55953;51.650;-0.522;2023-05-03T01:59:51;101940.60;;;7.00
68911;BMP180;55953;51.650;-0.522;2023-05-03T02:02:20;101942.00;;;7.00
68911;BMP180;55953;51.650;-0.522;2023-05-03T02:04:49;101943.80;;;7.00
68911;BMP180;55953;51.650;-0.522;2023-05-03T02:07:18;101941.40;;;6.90
68911;BMP180;55953;51.650;-0.522;2023-05-03T02:09:45;101946.40;;;7.00
68911;BMP180;55953;51.650;-0.522;2023-05-03T02:12:13;101948.20;;;6.90
68911;BMP180;55953;51.650;-0.522;2023-05-03T02:14:41;101940.80;;;7.00
68911;BMP180;55953;51.650;-0.522;2023-05-03T02:17:09;101941.40;;;7.00
68911;BMP180;55953;51.650;-0.522;2023-05-03T02:19:37;101941.80;;;7.00
68911;BMP180;55953;51.650;-0.522;2023-05-03T02:22:06;101943.60;;;6.98
68911;BMP180;55953;51.650;-0.522;2023-05-03T02:24:34;101937.60;;;6.90
68911;BMP180;55953;51.650;-0.522;2023-05-03T02:27:02;101943.80;;;6.86
68911;BMP180;55953;51.650;-0.522;2023-05-03T02:29:31;101940.20;;;6.90
68911;BMP180;55953;51.650;-0.522;2023-05-03T02:31:59;101934.60;;;6.90
68911;BMP180;55953;51.650;-0.522;2023-05-03T02:34:27;101940.80;;;7.00
68911;BMP180;55953;51.650;-0.522;2023-05-03T02:36:55;101942.00;;;7.00
68911;BMP180;55953;51.650;-0.522;2023-05-03T02:39:23;101944.80;;;6.94
68911;BMP180;55953;51.650;-0.522;2023-05-03T02:41:51;101941.00;;;6.90
68911;BMP180;55953;51.650;-0.522;2023-05-03T02:44:19;101938.00;;;6.90
68911;BMP180;55953;51.650;-0.522;2023-05-03T02:46:47;101941.60;;;6.90
68911;BMP180;55953;51.650;-0.522;2023-05-03T02:49:15;101935.00;;;6.88
68911;BMP180;55953;51.650;-0.522;2023-05-03T02:51:43;101929.80;;;6.80
68911;BMP180;55953;51.650;-0.522;2023-05-03T02:54:11;101930.80;;;6.80
68911;BMP180;55953;51.650;-0.522;2023-05-03T02:56:39;101926.80;;;6.80
68911;BMP180;55953;51.650;-0.522;2023-05-03T02:59:07;101925.40;;;6.76
68911;BMP180;55953;51.650;-0.522;2023-05-03T03:01:35;101927.20;;;6.70
68911;BMP180;55953;51.650;-0.522;2023-05-03T03:04:05;101924.00;;;6.70
68911;BMP180;55953;51.650;-0.522;2023-05-03T03:06:33;101926.40;;;6.60
68911;BMP180;55953;51.650;-0.522;2023-05-03T03:09:01;101925.20;;;6.60
68911;BMP180;55953;51.650;-0.522;2023-05-03T03:11:30;101928.00;;;6.60
68911;BMP180;55953;51.650;-0.522;2023-05-03T03:13:58;101924.60;;;6.50
68911;BMP180;55953;51.650;-0.522;2023-05-03T03:16:26;101923.60;;;6.60
68911;BMP180;55953;51.650;-0.522;2023-05-03T03:18:55;101921.40;;;6.70
68911;BMP180;55953;51.650;-0.522;2023-05-03T03:21:23;101923.60;;;6.70
68911;BMP180;55953;51.650;-0.522;2023-05-03T03:23:51;101918.80;;;6.64
68911;BMP180;55953;51.650;-0.522;2023-05-03T03:26:18;101915.80;;;6.60
68911;BMP180;55953;51.650;-0.522;2023-05-03T03:28:46;101911.20;;;6.50
68911;BMP180;55953;51.650;-0.522;2023-05-03T03:31:14;101908.00;;;6.60
68911;BMP180;55953;51.650;-0.522;2023-05-03T03:33:43;101902.20;;;6.60
68911;BMP180;55953;51.650;-0.522;2023-05-03T03:36:12;101891.80;;;6.60
68911;BMP180;55953;51.650;-0.522;2023-05-03T03:38:40;101888.00;;;6.58
68911;BMP180;55953;51.650;-0.522;2023-05-03T03:41:09;101884.80;;;6.50
68911;BMP180;55953;51.650;-0.522;2023-05-03T03:43:38;101879.20;;;6.50
68911;BMP180;55953;51.650;-0.522;2023-05-03T03:46:07;101881.00;;;6.42
68911;BMP180;55953;51.650;-0.522;2023-05-03T03:48:35;101879.80;;;6.50
68911;BMP180;55953;51.650;-0.522;2023-05-03T03:51:03;101874.00;;;6.46
68911;BMP180;55953;51.650;-0.522;2023-05-03T03:53:34;101871.00;;;6.40
68911;BMP180;55953;51.650;-0.522;2023-05-03T03:56:03;101868.80;;;6.40
68911;BMP180;55953;51.650;-0.522;2023-05-03T03:58:32;101869.60;;;6.46
68911;BMP180;55953;51.650;-0.522;2023-05-03T04:01:00;101865.40;;;6.46
68911;BMP180;55953;51.650;-0.522;2023-05-03T04:03:28;101865.20;;;6.40
68911;BMP180;55953;51.650;-0.522;2023-05-03T04:05:57;101859.60;;;6.30
68911;BMP180;55953;51.650;-0.522;2023-05-03T04:08:25;101856.80;;;6.20
68911;BMP180;55953;51.650;-0.522;2023-05-03T04:10:53;101858.40;;;6.20
68911;BMP180;55953;51.650;-0.522;2023-05-03T04:13:21;101857.60;;;6.20
68911;BMP180;55953;51.650;-0.522;2023-05-03T04:15:54;101861.60;;;6.12
68911;BMP180;55953;51.650;-0.522;2023-05-03T04:18:23;101866.00;;;6.10
68911;BMP180;55953;51.650;-0.522;2023-05-03T04:20:51;101861.60;;;6.10
68911;BMP180;55953;51.650;-0.522;2023-05-03T04:23:20;101866.20;;;6.20
68911;BMP180;55953;51.650;-0.522;2023-05-03T04:25:48;101866.40;;;6.20
68911;BMP180;55953;51.650;-0.522;2023-05-03T04:28:17;101872.00;;;6.20
68911;BMP180;55953;51.650;-0.522;2023-05-03T04:30:47;101871.00;;;6.18
68911;BMP180;55953;51.650;-0.522;2023-05-03T04:33:19;101871.40;;;6.10
68911;BMP180;55953;51.650;-0.522;2023-05-03T04:35:50;101872.80;;;6.08
68911;BMP180;55953;51.650;-0.522;2023-05-03T04:38:18;101874.40;;;6.00
68911;BMP180;55953;51.650;-0.522;2023-05-03T04:40:46;101874.40;;;6.00
68911;BMP180;55953;51.650;-0.522;2023-05-03T04:43:14;101876.40;;;6.02
68911;BMP180;55953;51.650;-0.522;2023-05-03T04:45:44;101872.40;;;6.06
68911;BMP180;55953;51.650;-0.522;2023-05-03T04:48:16;101874.20;;;6.06
68911;BMP180;55953;51.650;-0.522;2023-05-03T04:50:44;101876.40;;;6.10
68911;BMP180;55953;51.650;-0.522;2023-05-03T04:53:14;101876.00;;;6.00
68911;BMP180;55953;51.650;-0.522;2023-05-03T04:55:43;101881.20;;;6.10
68911;BMP180;55953;51.650;-0.522;2023-05-03T04:58:11;101877.00;;;6.10
68911;BMP180;55953;51.650;-0.522;2023-05-03T05:00:41;101877.20;;;6.10
68911;BMP180;55953;51.650;-0.522;2023-05-03T05:03:14;101880.80;;;6.10
68911;BMP180;55953;51.650;-0.522;2023-05-03T05:05:43;101878.00;;;6.14
68911;BMP180;55953;51.650;-0.522;2023-05-03T05:08:11;101883.40;;;6.20
68911;BMP180;55953;51.650;-0.522;2023-05-03T05:10:43;101879.60;;;6.30
68911;BMP180;55953;51.650;-0.522;2023-05-03T05:13:14;101883.80;;;6.34
68911;BMP180;55953;51.650;-0.522;2023-05-03T05:15:42;101883.60;;;6.40
68911;BMP180;55953;51.650;-0.522;2023-05-03T05:18:11;101883.20;;;6.40
68911;BMP180;55953;51.650;-0.522;2023-05-03T05:20:39;101888.20;;;6.40
68911;BMP180;55953;51.650;-0.522;2023-05-03T05:23:07;101884.60;;;6.40
68911;BMP180;55953;51.650;-0.522;2023-05-03T05:25:35;101883.80;;;6.40
68911;BMP180;55953;51.650;-0.522;2023-05-03T05:28:03;101885.80;;;6.50
68911;BMP180;55953;51.650;-0.522;2023-05-03T05:30:32;101889.60;;;6.50
68911;BMP180;55953;51.650;-0.522;2023-05-03T05:33:00;101894.20;;;6.50
68911;BMP180;55953;51.650;-0.522;2023-05-03T05:35:28;101897.40;;;6.60
68911;BMP180;55953;51.650;-0.522;2023-05-03T05:37:57;101896.00;;;6.60
68911;BMP180;55953;51.650;-0.522;2023-05-03T05:40:25;101893.20;;;6.72
68911;BMP180;55953;51.650;-0.522;2023-05-03T05:42:55;101894.80;;;6.76
68911;BMP180;55953;51.650;-0.522;2023-05-03T05:45:23;101894.40;;;6.88
68911;BMP180;55953;51.650;-0.522;2023-05-03T05:47:51;101903.20;;;6.90
68911;BMP180;55953;51.650;-0.522;2023-05-03T05:50:20;101901.60;;;7.00
68911;BMP180;55953;51.650;-0.522;2023-05-03T05:52:59;101897.20;;;7.10
68911;BMP180;55953;51.650;-0.522;2023-05-03T05:55:31;101898.40;;;7.10
68911;BMP180;55953;51.650;-0.522;2023-05-03T05:57:59;101899.40;;;7.20
68911;BMP180;55953;51.650;-0.522;2023-05-03T06:00:34;101906.20;;;7.30
68911;BMP180;55953;51.650;-0.522;2023-05-03T06:03:02;101899.20;;;7.40
68911;BMP180;55953;51.650;-0.522;2023-05-03T06:05:30;101900.60;;;7.50
68911;BMP180;55953;51.650;-0.522;2023-05-03T06:07:58;101895.80;;;7.56
68911;BMP180;55953;51.650;-0.522;2023-05-03T06:10:27;101897.80;;;7.70
68911;BMP180;55953;51.650;-0.522;2023-05-03T06:12:56;101893.00;;;7.70
68911;BMP180;55953;51.650;-0.522;2023-05-03T06:15:25;101892.80;;;7.80
68911;BMP180;55953;51.650;-0.522;2023-05-03T06:17:54;101890.00;;;7.90
68911;BMP180;55953;51.650;-0.522;2023-05-03T06:20:23;101888.60;;;8.00
68911;BMP180;55953;51.650;-0.522;2023-05-03T06:22:52;101887.40;;;8.08
68911;BMP180;55953;51.650;-0.522;2023-05-03T06:25:22;101893.20;;;8.12
68911;BMP180;55953;51.650;-0.522;2023-05-03T06:27:50;101885.00;;;8.30
68911;BMP180;55953;51.650;-0.522;2023-05-03T06:30:21;101885.20;;;8.40
68911;BMP180;55953;51.650;-0.522;2023-05-03T06:32:50;101883.40;;;8.50
68911;BMP180;55953;51.650;-0.522;2023-05-03T06:35:18;101883.40;;;8.58
68911;BMP180;55953;51.650;-0.522;2023-05-03T06:37:49;101884.60;;;8.64
68911;BMP180;55953;51.650;-0.522;2023-05-03T06:40:17;101883.20;;;8.70
68911;BMP180;55953;51.650;-0.522;2023-05-03T06:42:45;101883.80;;;8.88
68911;BMP180;55953;51.650;-0.522;2023-05-03T06:45:22;101887.00;;;9.00
68911;BMP180;55953;51.650;-0.522;2023-05-03T06:47:50;101883.80;;;9.20
68911;BMP180;55953;51.650;-0.522;2023-05-03T06:50:18;101882.00;;;9.30
68911;BMP180;55953;51.650;-0.522;2023-05-03T06:52:46;101880.80;;;9.40
68911;BMP180;55953;51.650;-0.522;2023-05-03T06:55:15;101874.60;;;9.60
68911;BMP180;55953;51.650;-0.522;2023-05-03T06:57:45;101881.00;;;9.76
68911;BMP180;55953;51.650;-0.522;2023-05-03T07:00:16;101879.40;;;9.90
68911;BMP180;55953;51.650;-0.522;2023-05-03T07:02:44;101869.20;;;10.00
68911;BMP180;55953;51.650;-0.522;2023-05-03T07:05:12;101867.20;;;10.50
68911;BMP180;55953;51.650;-0.522;2023-05-03T07:07:40;101874.60;;;10.68
68911;BMP180;55953;51.650;-0.522;2023-05-03T07:10:08;101868.60;;;11.34
68911;BMP180;55953;51.650;-0.522;2023-05-03T07:12:36;101863.40;;;11.80
68911;BMP180;55953;51.650;-0.522;2023-05-03T07:15:05;101863.20;;;11.90
68911;BMP180;55953;51.650;-0.522;2023-05-03T07:17:33;101861.20;;;11.80
68911;BMP180;55953;51.650;-0.522;2023-05-03T07:20:01;101860.80;;;11.70
68911;BMP180;55953;51.650;-0.522;2023-05-03T07:22:31;101856.40;;;11.80
68911;BMP180;55953;51.650;-0.522;2023-05-03T07:24:58;101854.60;;;11.70
68911;BMP180;55953;51.650;-0.522;2023-05-03T07:27:26;101853.80;;;11.70
68911;BMP180;55953;51.650;-0.522;2023-05-03T07:29:54;101854.20;;;11.78
68911;BMP180;55953;51.650;-0.522;2023-05-03T07:32:22;101849.60;;;11.82
68911;BMP180;55953;51.650;-0.522;2023-05-03T07:34:50;101848.80;;;11.90
68911;BMP180;55953;51.650;-0.522;2023-05-03T07:37:20;101847.60;;;12.00
68911;BMP180;55953;51.650;-0.522;2023-05-03T07:39:48;101844.60;;;12.10
68911;BMP180;55953;51.650;-0.522;2023-05-03T07:42:15;101844.80;;;12.10
68911;BMP180;55953;51.650;-0.522;2023-05-03T07:44:43;101841.40;;;12.12
68911;BMP180;55953;51.650;-0.522;2023-05-03T07:47:11;101847.20;;;12.20
68911;BMP180;55953;51.650;-0.522;2023-05-03T07:49:39;101849.40;;;12.20
68911;BMP180;55953;51.650;-0.522;2023-05-03T07:52:07;101845.60;;;12.30
68911;BMP180;55953;51.650;-0.522;2023-05-03T07:54:34;101849.40;;;12.40
68911;BMP180;55953;51.650;-0.522;2023-05-03T07:57:02;101848.80;;;12.50
68911;BMP180;55953;51.650;-0.522;2023-05-03T07:59:30;101849.60;;;12.66
68911;BMP180;55953;51.650;-0.522;2023-05-03T08:01:58;101852.60;;;12.60
68911;BMP180;55953;51.650;-0.522;2023-05-03T08:04:28;101846.20;;;12.70
68911;BMP180;55953;51.650;-0.522;2023-05-03T08:07:02;101844.00;;;12.84
68911;BMP180;55953;51.650;-0.522;2023-05-03T08:09:30;101842.20;;;13.00
68911;BMP180;55953;51.650;-0.522;2023-05-03T08:12:00;101837.60;;;13.10
68911;BMP180;55953;51.650;-0.522;2023-05-03T08:14:29;101836.40;;;13.20
68911;BMP180;55953;51.650;-0.522;2023-05-03T08:16:57;101830.00;;;13.34
68911;BMP180;55953;51.650;-0.522;2023-05-03T08:19:25;101828.80;;;13.50
68911;BMP180;55953;51.650;-0.522;2023-05-03T08:21:53;101830.60;;;13.68
68911;BMP180;55953;51.650;-0.522;2023-05-03T08:24:22;101827.00;;;13.98
68911;BMP180;55953;51.650;-0.522;2023-05-03T08:26:50;101825.80;;;14.20
68911;BMP180;55953;51.650;-0.522;2023-05-03T08:29:18;101832.00;;;14.34
68911;BMP180;55953;51.650;-0.522;2023-05-03T08:31:46;101832.80;;;14.40
68911;BMP180;55953;51.650;-0.522;2023-05-03T08:34:14;101832.60;;;14.50
68911;BMP180;55953;51.650;-0.522;2023-05-03T08:36:42;101822.20;;;14.58
68911;BMP180;55953;51.650;-0.522;2023-05-03T08:39:11;101833.00;;;14.50
68911;BMP180;55953;51.650;-0.522;2023-05-03T08:41:39;101836.60;;;14.40
68911;BMP180;55953;51.650;-0.522;2023-05-03T08:44:11;101834.60;;;14.40
68911;BMP180;55953;51.650;-0.522;2023-05-03T08:46:42;101833.20;;;14.40
68911;BMP180;55953;51.650;-0.522;2023-05-03T08:49:11;101827.40;;;14.50
68911;BMP180;55953;51.650;-0.522;2023-05-03T08:51:40;101827.00;;;14.50
68911;BMP180;55953;51.650;-0.522;2023-05-03T08:54:14;101822.80;;;14.50
68911;BMP180;55953;51.650;-0.522;2023-05-03T08:56:44;101821.20;;;14.50
68911;BMP180;55953;51.650;-0.522;2023-05-03T08:59:13;101818.20;;;14.60
68911;BMP180;55953;51.650;-0.522;2023-05-03T09:01:43;101813.80;;;14.60
68911;BMP180;55953;51.650;-0.522;2023-05-03T09:04:11;101814.40;;;14.50
68911;BMP180;55953;51.650;-0.522;2023-05-03T09:06:39;101811.80;;;14.50
68911;BMP180;55953;51.650;-0.522;2023-05-03T09:09:08;101814.20;;;14.50
68911;BMP180;55953;51.650;-0.522;2023-05-03T09:11:37;101807.40;;;14.50
68911;BMP180;55953;51.650;-0.522;2023-05-03T09:14:17;101796.40;;;14.60
68911;BMP180;55953;51.650;-0.522;2023-05-03T09:16:45;101804.80;;;14.70
68911;BMP180;55953;51.650;-0.522;2023-05-03T09:19:15;101807.80;;;14.80
68911;BMP180;55953;51.650;-0.522;2023-05-03T09:21:45;101806.80;;;14.80
68911;BMP180;55953;51.650;-0.522;2023-05-03T09:24:20;101808.80;;;14.80
68911;BMP180;55953;51.650;-0.522;2023-05-03T09:26:50;101805.20;;;14.80
68911;BMP180;55953;51.650;-0.522;2023-05-03T09:29:29;101802.00;;;14.80
68911;BMP180;55953;51.650;-0.522;2023-05-03T09:32:03;101805.20;;;14.90
68911;BMP180;55953;51.650;-0.522;2023-05-03T09:34:33;101800.80;;;15.00
68911;BMP180;55953;51.650;-0.522;2023-05-03T09:37:05;101806.20;;;15.10
68911;BMP180;55953;51.650;-0.522;2023-05-03T09:39:33;101808.20;;;15.30
68911;BMP180;55953;51.650;-0.522;2023-05-03T09:42:23;101808.60;;;15.30
68911;BMP180;55953;51.650;-0.522;2023-05-03T09:44:51;101807.80;;;15.20
68911;BMP180;55953;51.650;-0.522;2023-05-03T09:47:19;101810.80;;;15.10
68911;BMP180;55953;51.650;-0.522;2023-05-03T09:49:52;101815.00;;;15.10
68911;BMP180;55953;51.650;-0.522;2023-05-03T09:52:21;101811.00;;;15.10
68911;BMP180;55953;51.650;-0.522;2023-05-03T09:54:52;101811.60;;;15.10
68911;BMP180;55953;51.650;-0.522;2023-05-03T09:57:20;101806.20;;;14.94
68911;BMP180;55953;51.650;-0.522;2023-05-03T09:59:48;101806.80;;;14.88
68911;BMP180;55953;51.650;-0.522;2023-05-03T10:02:17;101804.00;;;14.90
68911;BMP180;55953;51.650;-0.522;2023-05-03T10:04:50;101811.60;;;15.10
68911;BMP180;55953;51.650;-0.522;2023-05-03T10:07:22;101804.20;;;15.20
68911;BMP180;55953;51.650;-0.522;2023-05-03T10:09:52;101797.60;;;15.20
68911;BMP180;55953;51.650;-0.522;2023-05-03T10:12:24;101804.20;;;15.30
68911;BMP180;55953;51.650;-0.522;2023-05-03T10:14:54;101803.40;;;15.30
68911;BMP180;55953;51.650;-0.522;2023-05-03T10:17:28;101806.60;;;15.34
68911;BMP180;55953;51.650;-0.522;2023-05-03T10:20:22;101792.80;;;15.40
68911;BMP180;55953;51.650;-0.522;2023-05-03T10:25:38;101796.60;;;15.60
68911;BMP180;55953;51.650;-0.522;2023-05-03T10:28:08;101789.80;;;15.64
68911;BMP180;55953;51.650;-0.522;2023-05-03T10:30:38;101784.60;;;15.80
68911;BMP180;55953;51.650;-0.522;2023-05-03T10:35:49;101784.80;;;15.70
68911;BMP180;55953;51.650;-0.522;2023-05-03T10:38:24;101784.40;;;15.68
68911;BMP180;55953;51.650;-0.522;2023-05-03T10:40:55;101785.80;;;15.66
68911;BMP180;55953;51.650;-0.522;2023-05-03T10:46:02;101782.00;;;15.98
68911;BMP180;55953;51.650;-0.522;2023-05-03T10:48:32;101773.60;;;15.96
68911;BMP180;55953;51.650;-0.522;2023-05-03T10:54:01;101766.60;;;16.10
68911;BMP180;55953;51.650;-0.522;2023-05-03T10:56:29;101762.20;;;16.10
68911;BMP180;55953;51.650;-0.522;2023-05-03T10:58:56;101757.80;;;16.00
68911;BMP180;55953;51.650;-0.522;2023-05-03T11:01:26;101751.60;;;16.16
68911;BMP180;55953;51.650;-0.522;2023-05-03T11:04:09;101755.20;;;16.28
68911;BMP180;55953;51.650;-0.522;2023-05-03T11:06:39;101753.80;;;16.20
68911;BMP180;55953;51.650;-0.522;2023-05-03T11:09:12;101748.00;;;16.20
68911;BMP180;55953;51.650;-0.522;2023-05-03T11:11:41;101740.40;;;16.10
68911;BMP180;55953;51.650;-0.522;2023-05-03T11:14:10;101743.40;;;16.20
68911;BMP180;55953;51.650;-0.522;2023-05-03T11:16:40;101740.80;;;16.32
68911;BMP180;55953;51.650;-0.522;2023-05-03T11:19:15;101732.00;;;16.40
68911;BMP180;55953;51.650;-0.522;2023-05-03T11:21:43;101734.20;;;16.40
68911;BMP180;55953;51.650;-0.522;2023-05-03T11:24:13;101727.20;;;16.40
68911;BMP180;55953;51.650;-0.522;2023-05-03T11:26:42;101720.80;;;16.60
68911;BMP180;55953;51.650;-0.522;2023-05-03T11:29:10;101725.40;;;16.78
68911;BMP180;55953;51.650;-0.522;2023-05-03T11:31:41;101724.00;;;16.92
68911;BMP180;55953;51.650;-0.522;2023-05-03T11:34:11;101716.60;;;17.06
68911;BMP180;55953;51.650;-0.522;2023-05-03T11:36:41;101712.60;;;17.18
68911;BMP180;55953;51.650;-0.522;2023-05-03T11:39:11;101709.80;;;17.10
68911;BMP180;55953;51.650;-0.522;2023-05-03T11:41:39;101705.60;;;16.90
68911;BMP180;55953;51.650;-0.522;2023-05-03T11:44:08;101703.80;;;16.70
68911;BMP180;55953;51.650;-0.522;2023-05-03T11:46:46;101702.60;;;16.60
68911;BMP180;55953;51.650;-0.522;2023-05-03T11:49:17;101697.20;;;16.50
68911;BMP180;55953;51.650;-0.522;2023-05-03T11:51:46;101696.40;;;16.40
68911;BMP180;55953;51.650;-0.522;2023-05-03T11:54:21;101687.00;;;16.48
68911;BMP180;55953;51.650;-0.522;2023-05-03T11:56:55;101689.80;;;16.70
68911;BMP180;55953;51.650;-0.522;2023-05-03T11:59:36;101678.80;;;16.90
68911;BMP180;55953;51.650;-0.522;2023-05-03T12:02:06;101675.40;;;17.20
68911;BMP180;55953;51.650;-0.522;2023-05-03T12:04:37;101669.60;;;17.40
68911;BMP180;55953;51.650;-0.522;2023-05-03T12:07:10;101669.60;;;17.50
68911;BMP180;55953;51.650;-0.522;2023-05-03T12:09:41;101668.60;;;17.60
68911;BMP180;55953;51.650;-0.522;2023-05-03T12:12:19;101663.80;;;17.68
68911;BMP180;55953;51.650;-0.522;2023-05-03T12:14:59;101663.40;;;17.70
68911;BMP180;55953;51.650;-0.522;2023-05-03T12:17:38;101661.60;;;17.70
68911;BMP180;55953;51.650;-0.522;2023-05-03T12:20:17;101662.20;;;17.80
68911;BMP180;55953;51.650;-0.522;2023-05-03T12:23:06;101651.20;;;17.90
68911;BMP180;55953;51.650;-0.522;2023-05-03T12:25:36;101649.00;;;18.12
68911;BMP180;55953;51.650;-0.522;2023-05-03T12:28:07;101648.60;;;18.20
68911;BMP180;55953;51.650;-0.522;2023-05-03T12:30:37;101651.80;;;18.20
68911;BMP180;55953;51.650;-0.522;2023-05-03T12:33:08;101651.40;;;18.20
68911;BMP180;55953;51.650;-0.522;2023-05-03T12:35:37;101646.20;;;18.20
68911;BMP180;55953;51.650;-0.522;2023-05-03T12:38:07;101645.00;;;18.20
68911;BMP180;55953;51.650;-0.522;2023-05-03T12:40:37;101642.80;;;18.00
68911;BMP180;55953;51.650;-0.522;2023-05-03T12:43:06;101635.60;;;17.90
68911;BMP180;55953;51.650;-0.522;2023-05-03T12:45:34;101636.80;;;17.90
68911;BMP180;55953;51.650;-0.522;2023-05-03T12:48:07;101632.80;;;18.00
68911;BMP180;55953;51.650;-0.522;2023-05-03T12:50:36;101628.80;;;18.02
68911;BMP180;55953;51.650;-0.522;2023-05-03T12:53:06;101633.40;;;18.10
68911;BMP180;55953;51.650;-0.522;2023-05-03T12:55:38;101623.60;;;18.30
68911;BMP180;55953;51.650;-0.522;2023-05-03T12:58:11;101620.60;;;18.44
68911;BMP180;55953;51.650;-0.522;2023-05-03T13:00:59;101618.40;;;18.46
68911;BMP180;55953;51.650;-0.522;2023-05-03T13:03:29;101613.80;;;18.46
68911;BMP180;55953;51.650;-0.522;2023-05-03T13:06:01;101611.80;;;18.40
68911;BMP180;55953;51.650;-0.522;2023-05-03T13:08:40;101612.20;;;18.30
68911;BMP180;55953;51.650;-0.522;2023-05-03T13:11:17;101604.40;;;18.10
68911;BMP180;55953;51.650;-0.522;2023-05-03T13:13:46;101603.60;;;18.26
68911;BMP180;55953;51.650;-0.522;2023-05-03T13:16:14;101595.60;;;18.30
68911;BMP180;55953;51.650;-0.522;2023-05-03T13:18:42;101602.60;;;18.30
68911;BMP180;55953;51.650;-0.522;2023-05-03T13:21:12;101603.00;;;18.30
68911;BMP180;55953;51.650;-0.522;2023-05-03T13:23:40;101597.80;;;18.30
68911;BMP180;55953;51.650;-0.522;2023-05-03T13:26:08;101597.80;;;18.30
68911;BMP180;55953;51.650;-0.522;2023-05-03T13:28:36;101595.80;;;18.14
68911;BMP180;55953;51.650;-0.522;2023-05-03T13:31:04;101595.00;;;18.10
68911;BMP180;55953;51.650;-0.522;2023-05-03T13:33:32;101588.20;;;18.00
68911;BMP180;55953;51.650;-0.522;2023-05-03T13:36:05;101587.40;;;18.00
68911;BMP180;55953;51.650;-0.522;2023-05-03T13:38:34;101591.20;;;18.10
68911;BMP180;55953;51.650;-0.522;2023-05-03T13:41:06;101592.20;;;18.24
68911;BMP180;55953;51.650;-0.522;2023-05-03T13:43:35;101580.60;;;18.30
68911;BMP180;55953;51.650;-0.522;2023-05-03T13:46:02;101579.60;;;18.28
68911;BMP180;55953;51.650;-0.522;2023-05-03T13:48:30;101583.40;;;18.38
68911;BMP180;55953;51.650;-0.522;2023-05-03T13:51:06;101571.00;;;18.40
68911;BMP180;55953;51.650;-0.522;2023-05-03T13:53:34;101574.40;;;18.50
68911;BMP180;55953;51.650;-0.522;2023-05-03T13:56:04;101568.00;;;18.64
68911;BMP180;55953;51.650;-0.522;2023-05-03T13:58:32;101566.60;;;18.54
68911;BMP180;55953;51.650;-0.522;2023-05-03T14:01:05;101564.20;;;18.40
68911;BMP180;55953;51.650;-0.522;2023-05-03T14:03:33;101555.00;;;18.30
68911;BMP180;55953;51.650;-0.522;2023-05-03T14:06:01;101555.60;;;18.32
68911;BMP180;55953;51.650;-0.522;2023-05-03T14:08:29;101546.60;;;18.10
68911;BMP180;55953;51.650;-0.522;2023-05-03T14:10:57;101540.40;;;18.00
68911;BMP180;55953;51.650;-0.522;2023-05-03T14:13:27;101543.20;;;18.06
68911;BMP180;55953;51.650;-0.522;2023-05-03T14:16:04;101535.20;;;18.20
68911;BMP180;55953;51.650;-0.522;2023-05-03T14:18:32;101526.80;;;18.10
68911;BMP180;55953;51.650;-0.522;2023-05-03T14:21:00;101529.20;;;18.20
68911;BMP180;55953;51.650;-0.522;2023-05-03T14:23:28;101536.80;;;18.30
68911;BMP180;55953;51.650;-0.522;2023-05-03T14:25:56;101533.20;;;18.44